createdAt,value
2018-11-21T00:00:22.850Z,43.67
2018-11-21T00:03:11.638Z,42.87
2018-11-21T00:06:00.811Z,45.47
2018-11-21T00:08:49.618Z,49.90
2018-11-21T00:11:38.389Z,40.50
2018-11-21T00:14:27.174Z,48.00
2018-11-21T00:17:15.969Z,38.63
2018-11-21T00:20:05.549Z,44.63
2018-11-21T00:22:54.362Z,45.10
2018-11-21T00:25:43.167Z,45.50
2018-11-21T00:28:31.966Z,39.10
2018-11-21T00:31:20.748Z,46.97
2018-11-21T00:34:09.552Z,44.73
2018-11-21T00:36:58.322Z,40.93
2018-11-21T00:39:47.136Z,42.17
2018-11-21T00:42:35.922Z,45.50
2018-11-21T00:45:24.703Z,48.03
2018-11-21T00:48:13.503Z,43.00
2018-11-21T00:51:02.555Z,43.60
2018-11-21T00:53:51.358Z,49.47
2018-11-21T00:56:40.170Z,39.50
2018-11-21T00:59:28.972Z,44.13
2018-11-21T01:02:17.767Z,44.67
2018-11-21T01:05:07.169Z,46.27
2018-11-21T01:07:55.980Z,43.80
2018-11-21T01:11:03.728Z,39.40
2018-11-21T01:13:53.367Z,43.13
2018-11-21T01:16:42.164Z,55.63
2018-11-21T01:19:31.026Z,42.63
2018-11-21T01:22:19.806Z,56.37
2018-11-21T01:25:08.805Z,47.57
2018-11-21T01:27:57.591Z,50.97
2018-11-21T01:30:46.362Z,48.13
2018-11-21T01:33:35.193Z,50.37
2018-11-21T01:36:42.933Z,50.67
2018-11-21T01:39:31.732Z,70.20
2018-11-21T01:42:20.517Z,55.33
2018-11-21T01:45:09.621Z,47.43
2018-11-21T01:47:58.405Z,62.60
2018-11-21T01:50:47.213Z,38.70
2018-11-21T01:53:36.089Z,47.50
2018-11-21T01:56:24.925Z,52.10
2018-11-21T01:59:13.787Z,50.30
2018-11-21T02:02:02.575Z,41.93
2018-11-21T02:04:51.721Z,47.90
2018-11-21T02:07:40.994Z,44.90
2018-11-21T02:10:29.761Z,59.80
2018-11-21T02:13:18.868Z,43.37
2018-11-21T02:16:07.744Z,50.03
2018-11-21T02:18:56.531Z,56.57
2018-11-21T02:21:45.332Z,62.90
2018-11-21T02:24:34.176Z,70.13
2018-11-21T02:27:23.386Z,59.20
2018-11-21T02:30:12.196Z,51.93
2018-11-21T02:33:01.329Z,53.83
2018-11-21T02:35:50.497Z,59.77
2018-11-21T02:38:39.358Z,56.00
2018-11-21T02:41:28.170Z,48.37
2018-11-21T02:44:16.958Z,64.67
2018-11-21T02:47:05.803Z,62.90
2018-11-21T02:49:54.609Z,53.57
2018-11-21T02:52:43.385Z,67.27
2018-11-21T02:55:32.539Z,62.10
2018-11-21T02:58:21.327Z,57.70
2018-11-21T03:01:10.446Z,63.53
2018-11-21T03:03:59.528Z,67.60
2018-11-21T03:06:48.608Z,68.77
2018-11-21T03:09:37.773Z,67.00
2018-11-21T03:12:26.974Z,59.40
2018-11-21T03:15:15.742Z,53.07
2018-11-21T03:18:05.149Z,57.67
2018-11-21T03:20:53.933Z,53.60
2018-11-21T03:23:42.729Z,48.30
2018-11-21T03:26:31.506Z,55.73
2018-11-21T03:29:20.390Z,48.20
2018-11-21T03:32:09.176Z,43.17
2018-11-21T03:34:57.966Z,53.67
2018-11-21T03:37:46.738Z,50.03
2018-11-21T03:40:35.548Z,53.30
2018-11-21T03:43:24.321Z,55.88
2018-11-21T03:46:13.309Z,51.67
2018-11-21T03:49:02.347Z,51.73
2018-11-21T03:51:51.309Z,51.83
2018-11-21T03:54:40.403Z,48.20
2018-11-21T03:57:29.373Z,50.30
2018-11-21T04:00:18.354Z,49.53
2018-11-21T04:03:07.306Z,50.07
2018-11-21T04:05:56.100Z,51.83
2018-11-21T04:08:45.169Z,45.20
2018-11-21T04:11:33.955Z,45.53
2018-11-21T04:14:22.746Z,52.23
2018-11-21T04:17:11.524Z,40.13
2018-11-21T04:20:19.282Z,43.17
2018-11-21T04:23:08.066Z,39.90
2018-11-21T04:25:56.856Z,42.43
2018-11-21T04:28:45.797Z,47.97
2018-11-21T04:31:34.587Z,40.60
2018-11-21T04:34:23.657Z,46.07
2018-11-21T04:37:12.446Z,48.70
2018-11-21T04:40:01.246Z,42.40
2018-11-21T04:42:50.425Z,42.43
2018-11-21T04:45:39.507Z,53.87
2018-11-21T04:48:28.562Z,50.07
2018-11-21T04:51:17.337Z,49.03
2018-11-21T04:54:06.467Z,44.30
2018-11-21T04:56:55.235Z,40.03
2018-11-21T04:59:44.271Z,44.20
2018-11-21T05:02:33.083Z,40.37
2018-11-21T05:05:21.812Z,42.53
2018-11-21T05:08:10.890Z,47.40
2018-11-21T05:10:59.682Z,45.03
2018-11-21T05:13:48.481Z,45.33
2018-11-21T05:16:37.532Z,42.60
2018-11-21T05:19:26.290Z,36.73
2018-11-21T05:22:15.131Z,43.93
2018-11-21T05:25:03.974Z,41.03
2018-11-21T05:27:53.123Z,44.90
2018-11-21T05:30:42.199Z,41.93
2018-11-21T05:33:31.005Z,45.37
2018-11-21T05:36:19.775Z,38.17
2018-11-21T05:39:10.473Z,40.20
2018-11-21T05:41:59.268Z,37.67
2018-11-21T05:44:48.026Z,41.13
2018-11-21T05:47:36.823Z,45.57
2018-11-21T05:50:25.908Z,39.23
2018-11-21T05:53:15.026Z,41.30
2018-11-21T05:56:03.793Z,40.57
2018-11-21T05:58:52.583Z,41.42
2018-11-21T06:01:41.338Z,43.53
2018-11-21T06:04:30.125Z,44.80
2018-11-21T06:07:19.211Z,42.23
2018-11-21T06:10:27.385Z,43.97
2018-11-21T06:13:16.173Z,41.37
2018-11-21T06:16:05.339Z,47.53
2018-11-21T06:18:54.173Z,39.37
2018-11-21T06:21:42.939Z,41.97
2018-11-21T06:24:31.733Z,43.83
2018-11-21T06:27:20.522Z,40.40
2018-11-21T06:30:10.928Z,45.33
2018-11-21T06:33:00.054Z,35.37
2018-11-21T06:35:48.856Z,39.80
2018-11-21T06:38:37.957Z,41.00
2018-11-21T06:41:26.757Z,39.83
2018-11-21T06:44:15.852Z,42.90
2018-11-21T06:47:04.651Z,36.73
2018-11-21T06:49:53.439Z,44.67
2018-11-21T06:52:42.550Z,43.20
2018-11-21T06:55:31.329Z,45.33
2018-11-21T06:58:20.172Z,40.80
2018-11-21T07:01:08.969Z,41.17
2018-11-21T07:03:57.753Z,39.47
2018-11-21T07:06:46.512Z,42.40
2018-11-21T07:09:35.337Z,40.33
2018-11-21T07:12:24.542Z,47.80
2018-11-21T07:15:13.331Z,46.27
2018-11-21T07:18:02.108Z,45.67
2018-11-21T07:20:50.904Z,42.37
2018-11-21T07:23:39.676Z,42.27
2018-11-21T07:26:28.823Z,41.33
2018-11-21T07:29:17.887Z,37.27
2018-11-21T07:32:06.767Z,43.73
2018-11-21T07:34:55.793Z,39.30
2018-11-21T07:37:44.859Z,38.40
2018-11-21T07:40:33.948Z,39.53
2018-11-21T07:43:22.736Z,37.50
2018-11-21T07:46:11.788Z,34.27
2018-11-21T07:49:00.802Z,38.33
2018-11-21T07:51:49.821Z,33.50
2018-11-21T07:54:38.873Z,36.23
2018-11-21T07:58:06.098Z,40.03
2018-11-21T08:01:33.341Z,31.20
2018-11-21T08:04:41.273Z,42.65
2018-11-21T08:07:49.041Z,34.80
2018-11-21T08:10:56.836Z,35.63
2018-11-21T08:13:55.257Z,38.13
2018-11-21T08:17:03.019Z,35.43
2018-11-21T08:20:10.815Z,43.50
2018-11-21T08:23:18.880Z,35.67
2018-11-21T08:26:26.616Z,37.97
2018-11-21T08:29:08.427Z,30.53
2018-11-21T08:31:57.195Z,40.13
2018-11-21T08:34:46.354Z,38.57
2018-11-21T08:37:35.124Z,35.93
2018-11-21T08:40:24.290Z,36.53
2018-11-21T08:43:13.079Z,34.07
2018-11-21T08:46:01.884Z,38.43
2018-11-21T08:48:50.661Z,37.17
2018-11-21T08:51:39.424Z,34.13
2018-11-21T08:54:28.223Z,41.53
2018-11-21T08:57:16.979Z,37.90
2018-11-21T09:00:07.202Z,28.00
2018-11-21T09:02:56.026Z,38.92
2018-11-21T09:05:44.811Z,35.23
2018-11-21T09:08:33.570Z,33.17
2018-11-21T09:11:22.759Z,29.77
2018-11-21T09:14:11.542Z,31.40
2018-11-21T09:17:00.340Z,35.60
2018-11-21T09:19:49.121Z,33.93
2018-11-21T09:22:37.987Z,36.80
2018-11-21T09:25:27.060Z,39.20
2018-11-21T09:28:15.833Z,32.23
2018-11-21T09:31:04.787Z,33.60
2018-11-21T09:33:54.182Z,33.97
2018-11-21T09:36:42.940Z,34.30
2018-11-21T09:39:31.736Z,31.60
2018-11-21T09:42:20.738Z,28.77
2018-11-21T09:45:11.468Z,34.97
2018-11-21T09:48:00.239Z,30.93
2018-11-21T09:50:49.057Z,34.60
2018-11-21T09:53:37.841Z,37.00
2018-11-21T09:56:26.633Z,39.77
2018-11-21T09:59:15.414Z,27.67
2018-11-21T10:02:42.913Z,32.37
2018-11-21T10:05:31.676Z,29.90
2018-11-21T10:08:44.180Z,32.60
2018-11-21T10:11:33.831Z,28.47
2018-11-21T10:14:22.625Z,40.10
2018-11-21T10:17:11.435Z,33.47
2018-11-21T10:20:00.216Z,27.93
2018-11-21T10:22:49.301Z,32.07
2018-11-21T10:25:38.056Z,32.33
2018-11-21T10:28:26.871Z,34.30
2018-11-21T10:31:16.405Z,29.30
2018-11-21T10:34:05.241Z,31.17
2018-11-21T10:36:54.083Z,35.53
2018-11-21T10:39:42.936Z,29.47
2018-11-21T10:42:31.727Z,33.47
2018-11-21T10:45:20.507Z,31.80
2018-11-21T10:48:09.610Z,30.73
2018-11-21T10:50:58.410Z,26.50
2018-11-21T10:53:47.203Z,27.75
2018-11-21T10:56:36.287Z,24.70
2018-11-21T10:59:25.124Z,30.10
2018-11-21T11:02:33.182Z,24.07
2018-11-21T11:05:41.029Z,28.87
2018-11-21T11:08:48.797Z,27.17
2018-11-21T11:11:56.578Z,25.47
2018-11-21T11:15:04.336Z,26.17
2018-11-21T11:18:05.345Z,27.30
2018-11-21T11:21:13.096Z,26.90
2018-11-21T11:24:20.855Z,28.10
2018-11-21T11:27:28.612Z,31.13
2018-11-21T11:30:36.660Z,35.97
2018-11-21T11:33:44.394Z,34.77
2018-11-21T11:36:52.159Z,36.80
2018-11-21T11:39:59.920Z,30.93
2018-11-21T11:43:07.683Z,30.80
2018-11-21T11:46:15.456Z,29.53
2018-11-21T11:49:23.245Z,30.90
2018-11-21T11:52:31.066Z,29.47
2018-11-21T11:55:38.831Z,32.50
2018-11-21T11:58:46.573Z,33.20
2018-11-21T12:01:54.327Z,34.13
2018-11-21T12:05:02.071Z,28.60
2018-11-21T12:08:09.825Z,35.20
2018-11-21T12:11:17.577Z,32.43
2018-11-21T12:14:25.998Z,29.65
2018-11-21T12:17:33.793Z,37.40
2018-11-21T12:20:41.576Z,31.43
2018-11-21T12:23:49.346Z,29.30
2018-11-21T12:26:57.120Z,37.37
2018-11-21T12:30:04.911Z,37.90
2018-11-21T12:33:12.679Z,47.97
2018-11-21T12:36:20.448Z,33.90
2018-11-21T12:39:29.017Z,34.80
2018-11-21T12:42:37.142Z,35.70
2018-11-21T12:45:44.893Z,36.10
2018-11-21T12:48:52.649Z,34.87
2018-11-21T12:52:00.413Z,31.80
2018-11-21T12:55:08.188Z,36.30
2018-11-21T12:58:06.633Z,33.45
2018-11-21T13:01:14.404Z,44.73
2018-11-21T13:04:22.138Z,55.37
2018-11-21T13:07:29.945Z,31.20
2018-11-21T13:10:37.678Z,35.73
2018-11-21T13:13:45.437Z,33.63
2018-11-21T13:16:53.184Z,27.33
2018-11-21T13:20:00.984Z,34.40
2018-11-21T13:23:08.727Z,29.90
2018-11-21T13:26:16.507Z,29.87
2018-11-21T13:29:24.579Z,40.80
2018-11-21T13:32:32.340Z,30.00
2018-11-21T13:35:40.108Z,30.97
2018-11-21T13:38:47.976Z,27.53
2018-11-21T13:41:55.715Z,34.17
2018-11-21T13:45:03.476Z,33.23
2018-11-21T13:48:11.234Z,30.15
2018-11-21T13:51:18.971Z,33.57
2018-11-21T13:54:26.789Z,29.03
2018-11-21T13:57:15.552Z,27.67
2018-11-21T14:00:04.788Z,33.80
2018-11-21T14:02:53.572Z,32.10
2018-11-21T14:05:42.552Z,35.40
2018-11-21T14:08:31.688Z,23.83
2018-11-21T14:11:20.491Z,34.90
2018-11-21T14:14:10.051Z,28.95
2018-11-21T14:16:58.826Z,32.80
2018-11-21T14:19:47.580Z,28.10
2018-11-21T14:22:36.353Z,38.70
2018-11-21T14:25:25.135Z,29.80
2018-11-21T14:28:14.273Z,32.70
2018-11-21T14:31:03.053Z,29.03
2018-11-21T14:33:51.857Z,31.20
2018-11-21T14:36:40.926Z,33.03
2018-11-21T14:39:30.056Z,30.10
2018-11-21T14:42:18.833Z,31.93
2018-11-21T14:45:10.023Z,34.40
2018-11-21T14:47:58.802Z,82.60
2018-11-21T14:50:47.587Z,44.60
2018-11-21T14:53:36.754Z,34.83
2018-11-21T14:56:29.424Z,36.90
2018-11-21T14:59:14.309Z,34.57
2018-11-21T15:02:03.107Z,33.87
2018-11-21T15:04:51.905Z,32.47
2018-11-21T15:07:41.479Z,30.67
2018-11-21T15:10:30.314Z,36.20
2018-11-21T15:13:19.080Z,34.40
2018-11-21T15:16:07.883Z,34.47
2018-11-21T15:18:56.677Z,36.27
2018-11-21T15:21:45.871Z,32.43
2018-11-21T15:24:34.639Z,38.87
2018-11-21T15:27:23.437Z,37.45
2018-11-21T15:30:15.055Z,30.87
2018-11-21T15:33:04.156Z,30.53
2018-11-21T15:35:53.311Z,36.20
2018-11-21T15:38:42.076Z,38.07
2018-11-21T15:41:30.918Z,37.80
2018-11-21T15:44:19.697Z,35.03
2018-11-21T15:47:08.524Z,32.83
2018-11-21T15:49:57.304Z,34.10
2018-11-21T15:52:52.757Z,35.97
2018-11-21T15:55:34.904Z,37.60
2018-11-21T15:58:23.702Z,35.90
2018-11-21T16:01:12.482Z,43.30
2018-11-21T16:04:01.287Z,34.47
2018-11-21T16:06:50.076Z,35.87
2018-11-21T16:09:39.271Z,36.93
2018-11-21T16:12:28.046Z,40.50
2018-11-21T16:15:19.688Z,42.07
2018-11-21T16:18:08.469Z,52.30
2018-11-21T16:20:57.272Z,43.63
2018-11-21T16:23:46.392Z,44.83
2018-11-21T16:26:35.227Z,43.53
2018-11-21T16:29:24.058Z,49.87
2018-11-21T16:32:13.250Z,54.63
2018-11-21T16:35:02.548Z,46.93
2018-11-21T16:38:10.194Z,55.30
2018-11-21T16:40:59.408Z,52.30
2018-11-21T16:43:48.241Z,47.37
2018-11-21T16:46:37.045Z,52.10
2018-11-21T16:49:26.182Z,49.87
2018-11-21T16:52:15.297Z,45.63
2018-11-21T16:55:04.092Z,51.53
2018-11-21T16:57:53.668Z,50.40
2018-11-21T17:00:42.464Z,53.83
2018-11-21T17:03:31.254Z,51.30
2018-11-21T17:06:20.057Z,71.13
2018-11-21T17:09:10.850Z,52.48
2018-11-21T17:11:59.663Z,43.33
2018-11-21T17:14:48.446Z,50.07
2018-11-21T17:17:37.635Z,50.97
2018-11-21T17:20:28.322Z,53.87
2018-11-21T17:23:17.104Z,49.23
2018-11-21T17:26:06.125Z,57.03
2018-11-21T17:28:54.923Z,47.50
2018-11-21T17:31:43.993Z,57.03
2018-11-21T17:34:33.120Z,60.00
2018-11-21T17:37:22.274Z,61.50
2018-11-21T17:40:32.351Z,64.60
2018-11-21T17:43:21.139Z,50.60
2018-11-21T17:46:10.607Z,50.93
2018-11-21T17:48:52.305Z,58.07
2018-11-21T17:51:41.063Z,55.40
2018-11-21T17:54:30.174Z,59.27
2018-11-21T17:57:19.298Z,52.60
2018-11-21T18:00:31.001Z,54.67
2018-11-21T18:03:19.785Z,72.70
2018-11-21T18:06:08.576Z,66.00
2018-11-21T18:08:57.374Z,67.20
2018-11-21T18:11:46.470Z,52.77
2018-11-21T18:14:35.271Z,80.10
2018-11-21T18:17:24.033Z,65.53
2018-11-21T18:20:13.611Z,60.03
2018-11-21T18:23:02.381Z,74.37
2018-11-21T18:25:51.208Z,67.83
2018-11-21T18:28:40.004Z,82.20
2018-11-21T18:31:28.824Z,57.20
2018-11-21T18:34:17.605Z,67.73
2018-11-21T18:37:06.658Z,59.43
2018-11-21T18:39:55.491Z,63.27
2018-11-21T18:42:44.379Z,67.00
2018-11-21T18:45:35.870Z,81.23
2018-11-21T18:48:25.002Z,63.70
2018-11-21T18:51:13.802Z,58.27
2018-11-21T18:54:02.603Z,53.67
2018-11-21T18:57:13.761Z,64.77
2018-11-21T19:00:25.617Z,53.03
2018-11-21T19:03:14.404Z,55.92
2018-11-21T19:06:03.197Z,60.77
2018-11-21T19:08:52.006Z,56.57
2018-11-21T19:11:41.106Z,58.17
2018-11-21T19:14:29.967Z,59.97
2018-11-21T19:17:18.742Z,59.97
2018-11-21T19:20:10.893Z,59.20
2018-11-21T19:23:00.060Z,63.87
2018-11-21T19:25:48.869Z,69.00
2018-11-21T19:28:37.999Z,61.00
2018-11-21T19:31:29.741Z,53.77
2018-11-21T19:34:16.072Z,57.30
2018-11-21T19:37:05.592Z,58.42
2018-11-21T19:39:54.533Z,58.17
2018-11-21T19:43:02.358Z,58.92
2018-11-21T19:46:10.207Z,59.20
2018-11-21T19:48:59.305Z,53.90
2018-11-21T19:51:48.409Z,60.23
2018-11-21T19:54:38.616Z,52.10
2018-11-21T19:57:46.921Z,61.43
2018-11-21T20:00:55.434Z,58.70
2018-11-21T20:03:45.911Z,53.00
2018-11-21T20:06:35.784Z,58.10
2018-11-21T20:09:44.704Z,49.00
2018-11-21T20:12:39.713Z,47.03
2018-11-21T20:15:24.424Z,55.80
2018-11-21T20:18:14.135Z,59.53
2018-11-21T20:21:03.140Z,51.90
2018-11-21T20:23:52.741Z,54.10
2018-11-21T20:26:41.643Z,52.63
2018-11-21T20:29:31.294Z,54.30
2018-11-21T20:32:20.841Z,52.63
2018-11-21T20:35:11.571Z,50.40
2018-11-21T20:38:00.538Z,54.42
2018-11-21T20:40:49.507Z,54.03
2018-11-21T20:43:39.146Z,51.70
2018-11-21T20:46:29.548Z,59.13
2018-11-21T20:49:38.301Z,51.30
2018-11-21T20:52:27.754Z,52.43
2018-11-21T20:55:18.006Z,52.57
2018-11-21T20:58:07.056Z,50.57
2018-11-21T21:00:56.042Z,62.40
2018-11-21T21:03:44.854Z,51.27
2018-11-21T21:06:52.698Z,49.03
2018-11-21T21:10:00.531Z,53.90
2018-11-21T21:12:49.337Z,46.37
2018-11-21T21:15:38.205Z,48.43
2018-11-21T21:18:27.067Z,43.50
2018-11-21T21:21:15.999Z,45.30
2018-11-21T21:24:23.828Z,52.77
2018-11-21T21:27:12.690Z,47.25
2018-11-21T21:30:01.478Z,38.63
2018-11-21T21:32:50.374Z,48.83
2018-11-21T21:35:39.177Z,45.50
2018-11-21T21:38:27.983Z,53.20
2018-11-21T21:41:16.748Z,50.07
2018-11-21T21:44:05.677Z,45.97
2018-11-21T21:46:54.479Z,49.00
2018-11-21T21:49:43.264Z,45.47
2018-11-21T21:52:32.643Z,53.30
2018-11-21T21:55:22.571Z,57.60
2018-11-21T21:58:11.334Z,47.97
2018-11-21T22:01:00.145Z,49.43
2018-11-21T22:03:48.930Z,46.60
2018-11-21T22:06:56.833Z,48.20
2018-11-21T22:12:35.225Z,52.33
2018-11-21T22:15:43.062Z,46.40
2018-11-21T22:18:50.830Z,49.90
2018-11-21T22:21:39.622Z,56.60
2018-11-21T22:24:28.421Z,58.30
2018-11-21T22:27:17.480Z,60.00
2018-11-21T22:30:08.224Z,52.53
2018-11-21T22:32:58.051Z,54.23
2018-11-21T22:35:47.180Z,52.83
2018-11-21T22:38:36.346Z,52.47
2018-11-21T22:41:25.123Z,47.83
2018-11-21T22:44:13.903Z,43.87
2018-11-21T22:47:03.044Z,43.60
2018-11-21T22:49:51.831Z,44.40
2018-11-21T22:52:40.703Z,46.40
2018-11-21T22:55:29.490Z,48.50
2018-11-21T22:58:18.319Z,43.60
2018-11-21T23:01:07.089Z,42.70
2018-11-21T23:03:56.219Z,48.70
2018-11-21T23:06:45.320Z,48.13
2018-11-21T23:09:34.448Z,48.23
2018-11-21T23:12:23.218Z,43.97
2018-11-21T23:15:12.777Z,50.20
2018-11-21T23:18:01.599Z,50.67
2018-11-21T23:20:50.392Z,50.03
2018-11-21T23:23:39.167Z,42.97
2018-11-21T23:26:27.967Z,54.10
2018-11-21T23:29:16.753Z,53.40
2018-11-21T23:32:05.763Z,47.80
2018-11-21T23:34:54.560Z,42.00
2018-11-21T23:37:43.346Z,47.73
2018-11-21T23:40:32.119Z,49.37
2018-11-21T23:43:20.980Z,43.63
2018-11-21T23:46:29.024Z,41.27
2018-11-21T23:49:17.832Z,45.65
2018-11-21T23:52:25.593Z,45.07
2018-11-21T23:55:16.667Z,45.83
2018-11-21T23:58:05.615Z,43.80
